Time;durP1;ratioP1;P1;durP2;ratioP2;P2;SDS_P1;SDS_P2;PMS_P1;PMS_P2;Temp;Humidity;BMP_temperature;BMP_pressure;BME280_temperature;BME280_humidity;BME280_pressure;Samples;Min_cycle;Max_cycle;Signal;HPM_P1;HPM_P2
2022/06/10 00:00:54;;;;;;;2.12;0.90;;;;;;;20.35;47.42;100021.91;1681517;84;21165;-67
2022/06/10 00:03:26;;;;;;;1.10;0.68;;;;;;;20.37;47.09;100021.10;1722568;82;21113;-66
2022/06/10 00:05:59;;;;;;;1.47;0.75;;;;;;;20.38;47.23;100015.98;1723081;82;21010;-68
2022/06/10 00:08:30;;;;;;;2.58;1.15;;;;;;;20.34;48.39;100021.64;1722411;82;21050;-67
2022/06/10 00:10:59;;;;;;;1.98;1.45;;;;;;;20.27;48.56;100021.05;1722601;82;20983;-67
2022/06/10 00:13:32;;;;;;;3.22;0.93;;;;;;;20.20;48.68;100023.16;1722767;82;21178;-66
2022/06/10 00:16:01;;;;;;;1.17;0.93;;;;;;;20.15;48.65;100021.77;1737675;82;21047;-66
2022/06/10 00:18:31;;;;;;;6.58;1.57;;;;;;;20.13;49.60;100023.91;1738481;82;21121;-66
2022/06/10 00:20:59;;;;;;;1.72;1.57;;;;;;;20.07;49.83;100020.35;1739604;82;22193;-66
2022/06/10 00:23:27;;;;;;;2.90;1.30;;;;;;;20.00;50.30;100024.64;1714758;82;21072;-66
2022/06/10 00:25:54;;;;;;;3.80;1.40;;;;;;;19.91;50.97;100024.00;1701243;82;21151;-66
2022/06/10 00:28:21;;;;;;;3.62;1.77;;;;;;;19.79;51.45;100026.88;1707860;83;21096;-67
2022/06/10 00:30:48;;;;;;;1.75;1.40;;;;;;;19.69;52.10;100028.13;1659745;85;21132;-67
2022/06/10 00:33:14;;;;;;;4.30;1.60;;;;;;;19.59;52.35;100029.66;1701495;81;21159;-68
2022/06/10 00:35:41;;;;;;;2.40;0.85;;;;;;;19.52;52.91;100031.74;1653429;85;21128;-68
2022/06/10 00:38:09;;;;;;;2.47;1.70;;;;;;;19.45;51.77;100024.37;1655976;85;21066;-67
2022/06/10 00:40:41;;;;;;;2.00;1.75;;;;;;;19.48;52.74;100025.22;1656613;85;21110;-67
2022/06/10 00:43:15;;;;;;;2.92;1.45;;;;;;;19.46;52.00;100023.31;1651166;85;21116;-67
2022/06/10 00:46:15;;;;;;;2.00;1.90;;;;;;;19.46;52.67;100023.31;1726926;81;21015;-67
2022/06/10 00:48:56;;;;;;;4.35;2.20;;;;;;;19.42;53.89;100024.35;1735750;81;21501;-66
2022/06/10 00:51:46;;;;;;;3.45;2.05;;;;;;;19.29;54.66;100024.75;1732354;81;21006;-66
2022/06/10 00:54:40;;;;;;;2.10;1.90;;;;;;;19.16;55.46;100024.61;1733139;81;21031;-67
2022/06/10 00:57:19;;;;;;;3.45;2.05;;;;;;;19.02;55.91;100017.44;1698240;83;21061;-66
2022/06/10 01:00:09;;;;;;;4.95;1.80;;;;;;;18.95;56.10;100022.72;1711174;83;21014;-67
2022/06/10 01:02:38;;;;;;;2.22;1.75;;;;;;;18.90;56.08;100024.83;1730021;83;21033;-66
2022/06/10 01:05:13;;;;;;;2.87;2.42;;;;;;;18.89;56.32;100020.48;1734518;82;20995;-66
2022/06/10 01:07:44;;;;;;;3.02;1.40;;;;;;;18.86;56.52;100019.66;1733602;83;20980;-66
2022/06/10 01:10:16;;;;;;;2.30;2.20;;;;;;;18.82;56.50;100024.73;1678916;84;21062;-66
2022/06/10 01:12:55;;;;;;;3.95;2.15;;;;;;;18.81;56.54;100024.44;1727506;82;21033;-66
2022/06/10 01:15:47;;;;;;;3.47;2.00;;;;;;;18.76;56.51;100025.72;1721366;82;21032;-67
2022/06/10 01:18:34;;;;;;;2.17;1.70;;;;;;;18.72;56.71;100027.26;1722006;82;21136;-67
2022/06/10 01:21:25;;;;;;;2.22;2.00;;;;;;;18.70;56.77;100028.05;1715719;82;21096;-67
2022/06/10 01:24:32;;;;;;;1.77;1.57;;;;;;;18.67;56.45;100032.61;1724329;82;21003;-67
2022/06/10 01:27:51;;;;;;;3.52;1.60;;;;;;;18.66;56.07;100029.61;1725308;82;21098;-67
2022/06/10 01:30:35;;;;;;;1.75;1.20;;;;;;;18.67;55.53;100035.31;1715655;82;21087;-68
2022/06/10 01:33:16;;;;;;;1.72;1.27;;;;;;;18.68;55.62;100034.23;1712517;83;21009;-66
2022/06/10 01:35:51;;;;;;;2.22;1.35;;;;;;;18.68;55.43;100041.81;1732944;82;20968;-67
2022/06/10 01:38:26;;;;;;;1.50;1.45;;;;;;;18.70;55.28;100042.89;1718095;82;21055;-67
2022/06/10 01:41:18;;;;;;;4.33;2.05;;;;;;;18.68;55.65;100048.56;1688708;82;21011;-67
2022/06/10 01:44:01;;;;;;;5.40;1.67;;;;;;;18.65;55.70;100049.05;1715028;82;21066;-67
2022/06/10 01:46:33;;;;;;;6.45;2.25;;;;;;;18.63;56.87;100050.37;1718233;82;21397;-67
2022/06/10 01:49:17;;;;;;;5.30;2.17;;;;;;;18.57;57.48;100050.84;1734324;82;21074;-67
2022/06/10 01:52:11;;;;;;;2.35;1.70;;;;;;;18.50;57.76;100050.19;1724248;82;21534;-66
2022/06/10 01:54:55;;;;;;;6.35;1.90;;;;;;;18.42;58.12;100045.19;1733448;82;21392;-66
2022/06/10 01:57:33;;;;;;;1.37;1.27;;;;;;;18.33;58.35;100053.41;1735182;82;21143;-65
2022/06/10 02:00:04;;;;;;;4.28;1.72;;;;;;;18.29;58.18;100055.28;1736170;80;21527;-67
2022/06/10 02:02:35;;;;;;;3.00;1.70;;;;;;;18.29;58.28;100047.72;1717709;82;21526;-66
2022/06/10 02:05:10;;;;;;;2.67;1.37;;;;;;;18.32;58.19;100053.15;1723674;82;21025;-67
2022/06/10 02:07:43;;;;;;;1.10;1.10;;;;;;;18.34;57.27;100051.83;1721253;82;21037;-67
2022/06/10 02:10:26;;;;;;;1.67;1.45;;;;;;;18.41;56.80;100053.02;1727672;82;21428;-66
2022/06/10 02:13:06;;;;;;;3.40;1.60;;;;;;;18.48;56.54;100058.52;1718420;82;21015;-67
2022/06/10 02:15:38;;;;;;;3.00;1.70;;;;;;;18.54;56.38;100057.26;1711322;84;21098;-68
2022/06/10 02:18:14;;;;;;;4.75;1.35;;;;;;;18.64;56.09;100061.44;1700019;82;21079;-67
2022/06/10 02:20:46;;;;;;;3.75;1.77;;;;;;;18.91;55.44;100050.78;1697613;84;21125;-66
2022/06/10 02:23:16;;;;;;;1.60;1.20;;;;;;;19.28;54.48;100047.42;1714953;82;20998;-67
2022/06/10 02:25:50;;;;;;;4.35;1.37;;;;;;;19.71;53.68;100051.13;1723889;82;21047;-67
2022/06/10 02:28:22;;;;;;;1.35;1.20;;;;;;;20.15;52.22;100059.64;1721647;82;21050;-67
2022/06/10 02:31:03;;;;;;;3.67;1.15;;;;;;;20.58;51.17;100063.20;1723786;82;21066;-67
2022/06/10 02:33:30;;;;;;;3.08;1.25;;;;;;;21.00;49.97;100065.91;1724057;81;21568;-67
2022/06/10 02:36:14;;;;;;;5.28;1.30;;;;;;;21.37;49.66;100066.84;1721527;83;21170;-67
2022/06/10 02:39:16;;;;;;;2.70;1.10;;;;;;;21.68;49.24;100070.48;1661778;86;21090;-68
2022/06/10 02:42:17;;;;;;;5.37;1.40;;;;;;;22.05;48.56;100069.96;1720230;83;21055;-69
2022/06/10 02:45:08;;;;;;;2.77;1.32;;;;;;;22.42;46.50;100068.90;1649403;84;21066;-67
2022/06/10 02:47:44;;;;;;;4.72;1.02;;;;;;;22.72;45.13;100066.66;1714745;82;21056;-68
2022/06/10 02:50:13;;;;;;;4.75;1.80;;;;;;;22.99;44.37;100069.02;1670758;84;21039;-68
2022/06/10 02:52:41;;;;;;;3.50;1.32;;;;;;;23.35;44.25;100069.44;1721203;82;20987;-68
2022/06/10 02:55:18;;;;;;;4.08;1.50;;;;;;;23.70;42.84;100065.70;1716340;83;21035;-68
2022/06/10 03:01:12;;;;;;;6.72;1.25;;;;;;;24.22;41.36;100069.69;1723481;82;21051;-69
2022/06/10 03:03:59;;;;;;;3.25;1.57;;;;;;;24.46;41.12;100066.98;1711003;82;21057;-68
2022/06/10 03:06:44;;;;;;;;;;;;;;;24.81;40.11;100071.04;1723200;82;21486;-67
2022/06/10 03:09:21;;;;;;;2.50;1.62;;;;;;;24.93;39.65;100078.23;1724651;82;20458;-68
2022/06/10 03:12:06;;;;;;;2.15;1.55;;;;;;;25.02;39.64;100074.33;1735375;81;22264;-68
2022/06/10 03:14:50;;;;;;;4.72;1.85;;;;;;;25.25;39.31;100074.87;1720786;82;21086;-69
2022/06/10 03:17:49;;;;;;;2.12;1.92;;;;;;;25.52;38.33;100067.95;1723636;82;21159;-67
2022/06/10 03:20:48;;;;;;;5.17;1.62;;;;;;;25.68;37.91;100061.73;1727381;82;21079;-70
2022/06/10 03:31:53;;;;;;;3.10;1.92;;;;;;;26.42;36.52;100066.55;1686169;82;21037;-68
2022/06/10 03:42:36;;;;;;;3.27;2.17;;;;;;;26.92;35.51;100067.30;1689473;84;21064;-67
2022/06/10 03:45:04;;;;;;;5.58;2.60;;;;;;;27.08;35.52;100068.58;1704868;82;21075;-68
2022/06/10 03:47:33;;;;;;;2.77;2.55;;;;;;;27.36;35.25;100063.91;1721271;82;21046;-70
2022/06/10 03:50:06;;;;;;;5.75;2.20;;;;;;;27.62;34.66;100070.18;1717936;82;20976;-69
2022/06/10 03:52:37;;;;;;;6.10;2.25;;;;;;;27.76;34.80;100064.11;1722334;82;21102;-69
2022/06/10 03:55:08;;;;;;;3.27;2.00;;;;;;;27.90;34.58;100064.64;1725517;81;21494;-71
2022/06/10 03:57:36;;;;;;;3.22;2.22;;;;;;;28.09;34.10;100069.36;1720641;83;20984;-69
2022/06/10 04:00:06;;;;;;;2.92;1.82;;;;;;;28.31;33.64;100065.79;1712206;82;21075;-70
2022/06/10 04:02:35;;;;;;;6.65;2.40;;;;;;;28.55;33.39;100063.26;1725821;82;21518;-69
2022/06/10 04:05:08;;;;;;;3.95;2.20;;;;;;;28.72;32.75;100064.70;1713218;82;21159;-69
2022/06/10 04:07:34;;;;;;;3.62;2.00;;;;;;;28.79;32.61;100068.36;1712321;82;20996;-68
2022/06/10 04:10:01;;;;;;;3.37;2.33;;;;;;;28.93;32.80;100066.86;1719893;82;21552;-70
2022/06/10 04:12:27;;;;;;;6.17;2.65;;;;;;;29.14;32.42;100073.16;1722683;82;21022;-69
2022/06/10 04:14:55;;;;;;;3.37;1.95;;;;;;;29.27;32.32;100070.30;1706685;82;22177;-68
2022/06/10 04:17:22;;;;;;;1.92;1.57;;;;;;;29.36;32.21;100076.36;1710070;82;21019;-71
2022/06/10 04:19:49;;;;;;;7.53;2.02;;;;;;;29.24;32.81;100077.00;1702985;83;21648;-69
2022/06/10 04:22:16;;;;;;;6.45;2.27;;;;;;;29.37;33.09;100073.88;1713906;83;21567;-69
2022/06/10 04:24:42;;;;;;;7.40;2.52;;;;;;;29.56;32.34;100074.94;1717938;82;21066;-70
2022/06/10 04:27:09;;;;;;;2.90;2.20;;;;;;;29.66;31.77;100080.89;1714722;82;21046;-69
2022/06/10 04:29:35;;;;;;;7.90;2.40;;;;;;;29.70;31.64;100081.89;1713507;82;21035;-69
2022/06/10 04:32:01;;;;;;;5.92;2.58;;;;;;;29.79;31.77;100087.97;1721462;82;21064;-68
2022/06/10 04:34:27;;;;;;;2.37;2.17;;;;;;;29.93;31.54;100089.96;1721127;82;21572;-70
2022/06/10 04:36:53;;;;;;;3.30;2.35;;;;;;;30.05;31.40;100088.75;1719211;82;21117;-71
2022/06/10 04:39:20;;;;;;;4.22;2.52;;;;;;;30.13;31.39;100091.23;1717735;83;21047;-71
2022/06/10 04:41:47;;;;;;;3.58;2.37;;;;;;;30.32;31.15;100090.08;1716659;83;21578;-71
2022/06/10 04:44:13;;;;;;;2.62;2.42;;;;;;;30.54;31.12;100093.20;1719326;83;21047;-73
2022/06/10 04:46:42;;;;;;;6.33;2.45;;;;;;;30.56;31.01;100097.80;1721732;83;21037;-70
2022/06/10 04:49:09;;;;;;;5.70;2.72;;;;;;;30.43;31.27;100094.13;1722699;83;21027;-71
2022/06/10 04:51:37;;;;;;;5.60;2.70;;;;;;;30.38;31.23;100099.78;1720306;83;21166;-71
2022/06/10 04:54:07;;;;;;;5.08;3.08;;;;;;;30.37;31.31;100096.81;1719612;83;21562;-71
2022/06/10 04:56:35;;;;;;;2.90;2.30;;;;;;;30.31;31.49;100102.19;1719228;83;21044;-71
2022/06/10 04:59:01;;;;;;;5.25;2.22;;;;;;;30.21;32.16;100111.59;1721283;83;21055;-70
2022/06/10 05:01:27;;;;;;;7.08;2.77;;;;;;;30.13;32.08;100111.85;1717219;83;21569;-69
2022/06/10 05:03:54;;;;;;;5.78;2.15;;;;;;;30.06;32.11;100119.78;1723438;83;21058;-69
2022/06/10 05:06:22;;;;;;;4.00;2.72;;;;;;;30.11;32.62;100120.19;1722617;83;21155;-72
2022/06/10 05:08:52;;;;;;;7.53;3.00;;;;;;;30.07;32.57;100115.33;1723558;82;21033;-69
2022/06/10 05:11:20;;;;;;;5.55;2.87;;;;;;;30.12;32.58;100110.80;1715948;83;21011;-70
2022/06/10 05:13:47;;;;;;;3.83;2.60;;;;;;;30.22;32.48;100118.15;1719098;83;21091;-69
2022/06/10 05:16:15;;;;;;;4.80;2.70;;;;;;;30.37;32.37;100117.44;1715310;83;21562;-71
2022/06/10 05:18:41;;;;;;;12.13;3.50;;;;;;;30.46;32.39;100120.97;1722897;82;21079;-70
2022/06/10 05:21:10;;;;;;;3.67;3.22;;;;;;;30.47;32.73;100117.07;1711244;83;21147;-70
2022/06/10 05:23:36;;;;;;;7.25;2.98;;;;;;;30.51;32.72;100118.59;1721476;81;21027;-73
2022/06/10 05:26:03;;;;;;;4.35;3.30;;;;;;;30.38;32.49;100119.83;1721959;82;21436;-71
2022/06/10 05:28:29;;;;;;;4.45;3.60;;;;;;;30.33;32.67;100125.52;1721894;82;20994;-74
2022/06/10 05:30:56;;;;;;;6.87;3.30;;;;;;;30.40;33.19;100120.88;1671690;85;21078;-72
2022/06/10 05:33:22;;;;;;;5.53;2.75;;;;;;;30.49;32.75;100125.00;1722898;82;21023;-71
2022/06/10 05:35:48;;;;;;;4.00;3.65;;;;;;;30.42;32.70;100135.94;1720865;82;21103;-72
2022/06/10 05:38:17;;;;;;;3.98;3.10;;;;;;;30.25;33.11;100129.88;1710256;82;21057;-71
2022/06/10 05:40:43;;;;;;;5.28;3.75;;;;;;;30.17;33.35;100135.37;1713787;82;21636;-72
2022/06/10 05:43:10;;;;;;;3.98;3.67;;;;;;;30.32;33.97;100129.39;1711286;83;21066;-72
2022/06/10 05:45:36;;;;;;;7.55;3.67;;;;;;;30.64;33.75;100129.97;1716861;80;21060;-71
2022/06/10 05:48:04;;;;;;;7.50;4.28;;;;;;;30.82;33.40;100131.52;1703158;83;21119;-70
2022/06/10 05:50:38;;;;;;;7.00;4.45;;;;;;;30.98;32.67;100128.24;1723431;83;21464;-71
2022/06/10 05:53:09;;;;;;;10.35;4.35;;;;;;;31.14;32.90;100136.19;1715891;83;21099;-69
2022/06/10 05:55:36;;;;;;;6.30;3.85;;;;;;;31.21;32.24;100132.89;1723087;80;21011;-69
2022/06/10 05:58:03;;;;;;;6.10;4.95;;;;;;;31.20;32.50;100130.72;1714232;82;21097;-60
2022/06/10 06:00:31;;;;;;;12.13;4.60;;;;;;;31.26;32.55;100137.42;1719030;83;20997;-62
2022/06/10 06:02:59;;;;;;;6.30;5.45;;;;;;;31.41;31.14;100139.02;1721628;82;20988;-62
2022/06/10 06:06:08;;;;;;;8.65;4.60;;;;;;;31.32;31.69;100141.59;1782948;79;23068;-63
2022/06/10 06:08:36;;;;;;;5.62;4.78;;;;;;;31.18;31.36;100146.77;1747879;80;20971;-59
2022/06/10 06:11:04;;;;;;;6.28;5.30;;;;;;;31.15;32.25;100144.66;1743794;80;21002;-61
2022/06/10 06:13:30;;;;;;;6.87;5.33;;;;;;;31.27;32.36;100146.73;1700593;83;21036;-61
2022/06/10 06:15:56;;;;;;;8.63;5.10;;;;;;;31.26;32.04;100153.94;1698189;83;21124;-63
2022/06/10 06:18:23;;;;;;;6.12;5.37;;;;;;;31.22;31.70;100151.84;1696337;83;21544;-61
2022/06/10 06:20:51;;;;;;;6.50;5.22;;;;;;;31.23;31.77;100151.26;1680520;83;21640;-60
2022/06/10 06:23:19;;;;;;;9.00;6.47;;;;;;;31.16;31.57;100153.75;1701975;81;21005;-63
2022/06/10 06:25:45;;;;;;;6.30;5.75;;;;;;;31.04;31.61;100151.13;1723506;81;21000;-62
2022/06/10 06:28:12;;;;;;;14.73;6.83;;;;;;;30.96;31.73;100156.09;1648691;84;21029;-64
2022/06/10 06:30:38;;;;;;;7.15;6.40;;;;;;;31.00;31.51;100149.36;1669713;84;21136;-60
2022/06/10 06:33:08;;;;;;;6.08;5.60;;;;;;;31.03;31.46;100152.26;1671356;83;21069;-60
2022/06/10 06:35:38;;;;;;;7.12;5.92;;;;;;;31.08;31.34;100152.66;1691203;83;21025;-60
2022/06/10 06:38:06;;;;;;;11.20;7.20;;;;;;;31.08;31.37;100158.71;1666904;84;21050;-62
2022/06/10 06:40:32;;;;;;;7.42;6.20;;;;;;;31.05;30.97;100158.81;1678484;84;21033;-63
2022/06/10 06:42:58;;;;;;;8.70;6.37;;;;;;;31.10;31.28;100153.68;1670968;84;21086;-62
2022/06/10 06:45:25;;;;;;;10.20;5.97;;;;;;;31.24;30.95;100155.64;1663463;84;21542;-61
2022/06/10 06:47:52;;;;;;;10.00;7.33;;;;;;;31.46;30.95;100157.86;1678042;84;21102;-60
2022/06/10 06:50:25;;;;;;;8.73;6.65;;;;;;;31.51;30.39;100171.47;1665410;84;21531;-59
2022/06/10 06:52:53;;;;;;;10.23;6.40;;;;;;;31.40;30.57;100160.82;1673377;83;21613;-63
2022/06/10 06:55:20;;;;;;;12.80;7.10;;;;;;;31.49;30.60;100162.16;1677956;83;21612;-65
2022/06/10 06:57:49;;;;;;;7.47;6.78;;;;;;;31.60;30.53;100162.58;1686878;83;21040;-61
2022/06/10 07:00:17;;;;;;;10.68;6.87;;;;;;;31.52;30.50;100161.50;1676314;83;21093;-60
2022/06/10 07:02:44;;;;;;;9.55;5.65;;;;;;;31.49;29.78;100158.03;1674890;83;21085;-60
2022/06/10 07:05:12;;;;;;;10.53;6.28;;;;;;;31.51;28.58;100165.96;1677262;83;21090;-59
2022/06/10 07:07:41;;;;;;;6.00;5.42;;;;;;;31.50;28.79;100162.98;1663507;84;21032;-68
2022/06/10 07:10:14;;;;;;;8.68;5.65;;;;;;;31.51;28.53;100164.58;1713919;82;21054;-69
2022/06/10 07:12:41;;;;;;;4.83;4.53;;;;;;;31.51;28.08;100155.74;1714726;80;21100;-71
2022/06/10 07:15:09;;;;;;;6.53;5.80;;;;;;;31.60;27.33;100160.62;1701940;82;21164;-71
2022/06/10 07:17:37;;;;;;;6.72;4.35;;;;;;;31.53;27.26;100157.62;1700587;82;21044;-68
2022/06/10 07:20:07;;;;;;;10.90;5.05;;;;;;;31.37;27.10;100163.43;1714393;82;21074;-70
2022/06/10 07:22:35;;;;;;;5.35;4.85;;;;;;;31.32;27.12;100164.99;1728298;82;21601;-68
2022/06/10 07:25:01;;;;;;;7.35;4.35;;;;;;;31.44;26.97;100156.25;1716884;82;21029;-69
2022/06/10 07:27:27;;;;;;;6.58;5.42;;;;;;;31.60;26.27;100159.25;1708106;82;21085;-69
2022/06/10 07:29:54;;;;;;;13.30;5.60;;;;;;;31.55;26.09;100157.27;1703563;82;21561;-76
2022/06/10 07:32:21;;;;;;;8.45;4.78;;;;;;;30.93;25.86;100134.75;1716472;82;21080;-69
2022/06/10 07:34:47;;;;;;;7.53;5.22;;;;;;;31.06;25.84;100164.54;1727669;81;21031;-68
2022/06/10 07:37:13;;;;;;;5.03;4.62;;;;;;;31.10;25.94;100158.64;1706170;82;21135;-69
2022/06/10 07:39:39;;;;;;;7.45;5.10;;;;;;;31.16;26.13;100158.68;1714168;82;21546;-69
2022/06/10 07:42:06;;;;;;;8.90;5.05;;;;;;;31.30;25.72;100161.77;1715017;82;21029;-70
2022/06/10 07:44:36;;;;;;;8.15;6.12;;;;;;;31.29;25.50;100166.47;1708997;81;21087;-72
2022/06/10 07:47:08;;;;;;;7.95;4.97;;;;;;;31.29;25.60;100161.52;1688748;83;21518;-70
2022/06/10 07:49:37;;;;;;;9.75;7.15;;;;;;;31.25;25.64;100155.89;1690479;83;21030;-68
2022/06/10 07:52:04;;;;;;;8.63;7.60;;;;;;;31.02;25.20;100162.22;1669433;83;21489;-67
2022/06/10 07:54:33;;;;;;;15.70;7.67;;;;;;;30.55;24.55;100178.68;1683731;83;21556;-75
2022/06/10 07:57:01;;;;;;;7.55;6.85;;;;;;;30.19;25.83;100170.21;1645613;85;21147;-68
2022/06/10 07:59:27;;;;;;;15.90;9.15;;;;;;;29.97;25.86;100176.13;1627924;85;21619;-65
2022/06/10 08:01:53;;;;;;;16.82;9.23;;;;;;;29.67;25.87;100160.80;1648712;84;21037;-67
2022/06/10 08:04:20;;;;;;;8.08;7.12;;;;;;;29.45;26.48;100176.02;1652671;84;21048;-66
2022/06/10 08:06:47;;;;;;;11.78;8.45;;;;;;;29.41;26.04;100184.66;1654716;84;21111;-67
2022/06/10 08:09:20;;;;;;;12.18;8.45;;;;;;;29.46;25.96;100172.13;1634564;85;21093;-66
2022/06/10 08:11:44;;;;;;;10.23;8.05;;;;;;;29.53;25.86;100181.28;1658016;84;21049;-68
2022/06/10 08:14:10;;;;;;;8.90;8.00;;;;;;;29.51;25.85;100175.53;1676381;84;21132;-65
2022/06/10 08:16:37;;;;;;;9.15;8.15;;;;;;;29.29;26.28;100176.47;1677028;84;21024;-67
2022/06/10 08:19:04;;;;;;;12.13;10.90;;;;;;;29.07;26.99;100184.75;1671605;84;21068;-66
2022/06/10 08:24:16;;;;;;;11.95;8.83;;;;;;;28.89;27.18;100170.93;1684155;83;21062;-69
2022/06/10 08:26:43;;;;;;;10.10;8.95;;;;;;;28.60;27.67;100108.37;1683608;83;21192;-65
2022/06/10 08:29:10;;;;;;;11.83;9.90;;;;;;;29.02;27.56;100167.05;1695864;83;21069;-66
2022/06/10 08:31:37;;;;;;;11.78;9.40;;;;;;;29.07;27.55;100171.03;1686565;83;21144;-66
2022/06/10 08:34:04;;;;;;;15.50;9.65;;;;;;;29.10;27.48;100172.58;1681416;83;21081;-66
2022/06/10 08:36:33;;;;;;;10.63;9.63;;;;;;;28.93;27.79;100164.25;1672787;84;21074;-67
2022/06/10 08:39:00;;;;;;;10.48;9.60;;;;;;;28.72;28.22;100163.99;1664988;84;21617;-66
2022/06/10 08:41:55;;;;;;;11.03;9.70;;;;;;;28.56;28.45;100167.70;1668169;84;21054;-65
2022/06/10 08:44:53;;;;;;;11.22;10.13;;;;;;;28.47;28.50;100166.81;1674779;84;21632;-65
2022/06/10 08:47:53;;;;;;;10.58;9.55;;;;;;;28.35;28.18;100180.52;1645492;85;21538;-67
2022/06/10 08:50:49;;;;;;;9.53;8.63;;;;;;;28.26;28.19;100171.42;1648060;85;21158;-68
2022/06/10 08:53:54;;;;;;;9.53;7.23;;;;;;;28.34;28.29;100179.45;1601924;87;21029;-67
2022/06/10 08:56:34;;;;;;;9.20;7.45;;;;;;;28.39;28.36;100187.56;1591786;87;21055;-66
2022/06/10 08:59:12;;;;;;;9.45;7.58;;;;;;;28.39;28.18;100187.56;1600814;88;21139;-66
2022/06/10 09:02:01;;;;;;;9.20;7.20;;;;;;;28.32;28.25;100174.27;1621552;86;21082;-66
2022/06/10 09:04:52;;;;;;;8.15;7.35;;;;;;;28.35;28.52;100170.92;1680881;84;21002;-66
2022/06/10 09:07:25;;;;;;;6.45;5.92;;;;;;;28.48;28.27;100170.61;1676201;84;21084;-66
2022/06/10 09:09:52;;;;;;;7.10;4.28;;;;;;;28.57;28.42;100168.50;1660301;84;21117;-66
2022/06/10 09:12:42;;;;;;;6.03;4.65;;;;;;;28.66;28.10;100163.31;1669869;83;21095;-68
2022/06/10 09:15:10;;;;;;;6.42;4.78;;;;;;;28.70;27.77;100176.64;1679594;83;21560;-66
2022/06/10 09:17:46;;;;;;;10.95;4.50;;;;;;;28.79;27.73;100165.73;1692346;83;21112;-68
2022/06/10 09:20:30;;;;;;;5.65;4.45;;;;;;;28.88;27.78;100167.95;1617732;86;21054;-67
2022/06/10 09:23:08;;;;;;;4.95;3.55;;;;;;;29.01;27.61;100173.10;1574406;86;21439;-66
2022/06/10 09:25:48;;;;;;;4.85;3.20;;;;;;;29.16;27.01;100180.67;1694359;83;21062;-67
2022/06/10 09:28:16;;;;;;;2.98;2.80;;;;;;;29.17;26.72;100177.62;1688283;83;21027;-67
2022/06/10 09:30:54;;;;;;;4.47;3.30;;;;;;;29.06;26.97;100175.69;1694865;83;21114;-67
2022/06/10 09:33:41;;;;;;;3.75;3.17;;;;;;;28.91;27.16;100171.45;1692392;83;21628;-65
2022/06/10 09:36:11;;;;;;;;;;;;;;;28.84;27.36;100169.72;1685958;83;21601;-70
2022/06/10 09:38:50;;;;;;;3.87;3.40;;;;;;;28.96;27.57;100185.58;1700902;83;20098;-69
2022/06/10 09:41:45;;;;;;;6.87;4.75;;;;;;;28.99;27.56;100180.84;1696577;83;21058;-67
2022/06/10 09:44:38;;;;;;;5.00;4.08;;;;;;;29.02;27.31;100175.27;1649349;79;21122;-69
2022/06/10 09:47:26;;;;;;;5.90;4.10;;;;;;;28.95;27.38;100194.92;1663202;84;21091;-69
2022/06/10 09:50:16;;;;;;;4.22;3.22;;;;;;;28.87;27.40;100180.61;1665136;84;21146;-69
2022/06/10 09:53:19;;;;;;;4.28;3.75;;;;;;;28.86;27.60;100179.80;1674247;84;21605;-72
2022/06/10 09:55:54;;;;;;;4.15;3.67;;;;;;;28.88;27.59;100192.64;1649113;83;21120;-69
2022/06/10 09:58:53;;;;;;;6.03;3.37;;;;;;;28.88;27.15;100187.73;1681326;83;21452;-71
2022/06/10 10:01:46;;;;;;;4.33;3.87;;;;;;;28.82;27.36;100185.68;1675769;82;21082;-68
2022/06/10 10:04:36;;;;;;;4.97;3.70;;;;;;;28.81;27.54;100183.25;1647303;85;21913;-70
2022/06/10 10:07:16;;;;;;;4.03;3.72;;;;;;;28.84;27.36;100193.03;1661435;85;21125;-69
2022/06/10 10:09:54;;;;;;;5.42;3.70;;;;;;;28.76;27.59;100180.06;1648610;85;21542;-70
2022/06/10 10:12:40;;;;;;;8.00;3.98;;;;;;;28.72;27.69;100192.79;1668977;84;21143;-74
2022/06/10 10:15:28;;;;;;;3.80;3.50;;;;;;;28.76;27.51;100184.17;1644893;84;21056;-71
2022/06/10 10:18:18;;;;;;;;;;;;;;;28.83;27.32;100190.03;1662868;84;21096;-69
2022/06/10 10:21:13;;;;;;;4.40;4.10;;;;;;;28.90;27.34;100184.11;1672500;84;20493;-71
2022/06/10 10:23:53;;;;;;;4.10;3.80;;;;;;;28.91;27.05;100182.42;1676047;84;21048;-68
2022/06/10 10:26:31;;;;;;;4.42;4.03;;;;;;;28.97;27.00;100177.61;1664887;84;21100;-74
2022/06/10 10:29:09;;;;;;;5.30;4.80;;;;;;;28.98;26.86;100190.19;1678538;84;21099;-71
2022/06/10 10:31:57;;;;;;;10.30;4.10;;;;;;;28.97;26.84;100189.13;1656212;84;21080;-70
2022/06/10 10:34:29;;;;;;;3.85;3.58;;;;;;;28.88;27.11;100181.67;1691164;83;21706;-70
2022/06/10 10:37:01;;;;;;;8.10;4.70;;;;;;;28.90;26.73;100180.79;1694965;83;21092;-70
2022/06/10 10:39:38;;;;;;;5.87;4.58;;;;;;;29.02;26.77;100188.42;1684322;83;21776;-68
2022/06/10 10:42:19;;;;;;;4.85;4.25;;;;;;;29.12;26.32;100205.16;1696310;83;21055;-70
2022/06/10 10:44:54;;;;;;;6.75;5.12;;;;;;;29.16;26.11;100193.86;1683664;82;21556;-70
2022/06/10 10:47:26;;;;;;;5.62;5.00;;;;;;;29.19;25.64;100173.19;1683700;84;21112;-70
2022/06/10 10:50:10;;;;;;;4.53;4.22;;;;;;;29.23;25.47;100187.32;1679223;84;21044;-68
2022/06/10 10:52:44;;;;;;;4.75;4.45;;;;;;;29.28;25.62;100196.80;1688823;84;21076;-70
2022/06/10 10:55:22;;;;;;;9.83;5.10;;;;;;;29.35;25.36;100176.30;1668841;83;21191;-71
2022/06/10 10:58:21;;;;;;;7.15;5.17;;;;;;;29.34;25.32;100178.81;1671156;84;21040;-69
2022/06/10 11:01:02;;;;;;;5.97;5.17;;;;;;;29.31;25.32;100181.64;1682398;84;21749;-69
2022/06/10 11:03:48;;;;;;;4.05;3.75;;;;;;;29.34;25.49;100176.07;1669185;84;21052;-69
2022/06/10 11:06:31;;;;;;;4.40;4.00;;;;;;;29.40;25.34;100167.92;1612146;87;21102;-68
2022/06/10 11:09:21;;;;;;;4.72;4.37;;;;;;;29.48;25.26;100167.16;1664016;84;21119;-75
2022/06/10 11:11:51;;;;;;;5.65;5.10;;;;;;;29.53;25.30;100167.55;1671057;83;21132;-69
2022/06/10 11:14:34;;;;;;;9.63;5.17;;;;;;;29.55;25.00;100160.61;1679021;84;21116;-72
2022/06/10 11:17:16;;;;;;;10.60;5.90;;;;;;;29.59;25.09;100170.38;1666945;84;21536;-71
2022/06/10 11:20:01;;;;;;;6.20;5.65;;;;;;;29.58;24.66;100172.91;1668886;84;21528;-70
2022/06/10 11:22:38;;;;;;;6.53;5.53;;;;;;;29.55;24.30;100167.47;1669401;83;21026;-72
2022/06/10 11:25:14;;;;;;;5.00;4.58;;;;;;;29.51;24.04;100182.97;1667607;84;21110;-71
2022/06/10 11:27:52;;;;;;;6.20;5.47;;;;;;;29.46;24.09;100157.03;1663811;84;21070;-69
2022/06/10 11:30:26;;;;;;;8.55;5.58;;;;;;;29.42;24.21;100160.17;1668377;84;21153;-70
2022/06/10 11:33:01;;;;;;;5.72;5.20;;;;;;;29.42;24.22;100152.77;1671463;84;21642;-70
2022/06/10 11:35:40;;;;;;;7.45;6.65;;;;;;;29.48;23.96;100173.45;1670928;84;21135;-70
2022/06/10 11:38:27;;;;;;;10.80;6.53;;;;;;;29.49;24.13;100177.80;1670197;84;21093;-70
2022/06/10 11:40:58;;;;;;;7.55;6.58;;;;;;;29.41;24.23;100156.63;1665555;84;21537;-70
2022/06/10 11:43:33;;;;;;;7.12;6.42;;;;;;;29.29;24.47;100175.09;1677289;83;21523;-70
2022/06/10 11:46:41;;;;;;;8.18;7.03;;;;;;;29.20;24.40;100158.36;1670543;82;21028;-69
2022/06/10 11:49:24;;;;;;;6.72;6.17;;;;;;;29.16;24.52;100145.83;1672856;84;21028;-68
2022/06/10 11:52:11;;;;;;;6.75;6.15;;;;;;;29.13;24.70;100160.17;1674108;84;21460;-70
2022/06/10 11:54:49;;;;;;;7.62;5.92;;;;;;;29.16;24.68;100146.38;1664734;84;21126;-72
2022/06/10 12:00:53;;;;;;;7.08;6.47;;;;;;;29.20;23.51;100150.92;1676339;83;21042;-70
2022/06/10 12:03:46;;;;;;;5.62;5.12;;;;;;;29.24;23.04;100148.36;1659674;84;21010;-69
2022/06/10 12:06:24;;;;;;;6.17;5.62;;;;;;;29.24;22.64;100138.75;1673679;83;21079;-70
2022/06/10 12:09:15;;;;;;;5.67;5.28;;;;;;;29.20;22.34;100145.44;1686761;83;21665;-69
2022/06/10 12:11:48;;;;;;;7.47;5.72;;;;;;;29.20;22.35;100147.38;1678279;83;21591;-69
2022/06/10 12:14:41;;;;;;;6.70;6.03;;;;;;;29.21;22.70;100137.43;1677066;83;21074;-70
2022/06/10 12:17:25;;;;;;;8.03;5.70;;;;;;;29.23;22.23;100138.49;1608947;87;21117;-68
2022/06/10 12:20:04;;;;;;;7.25;5.37;;;;;;;29.25;22.28;100132.12;1680981;83;21215;-71
2022/06/10 12:22:33;;;;;;;9.03;5.67;;;;;;;29.25;22.46;100134.31;1682230;83;21392;-70
2022/06/10 12:25:00;;;;;;;5.53;5.05;;;;;;;29.27;22.22;100126.57;1682111;83;21074;-72
2022/06/10 12:27:40;;;;;;;11.03;6.22;;;;;;;29.27;22.41;100135.34;1671947;83;21039;-76